This is the latest recevied weather packets stored in our database for station/object WX7FGZ-3. If no packets are shown the sender has not sent any weather packets the latest 1 day(s).
| Time | Temp. | Humidity | Pressure | Rain* | Wind** | Luminosity | Snow |
|---|---|---|---|---|---|---|---|
| 1778039484 | 3.89° C | 84% | 1008.8 hPa | 0 mm | - | - | - |
| 1778039184 | 3.89° C | 84% | 1008.7 hPa | 0 mm | - | - | - |
| 1778038583 | 3.89° C | 85% | 1008.7 hPa | 0 mm | - | - | - |
| 1778038283 | 3.89° C | 85% | 1008.4 hPa | 0 mm | - | - | - |
| 1778037982 | 3.33° C | 86% | 1008.3 hPa | 0 mm | - | - | - |
| 1778037683 | 3.33° C | 86% | 1008.1 hPa | 0 mm | - | - | - |
| 1778037382 | 3.33° C | 86% | 1008.1 hPa | 0 mm | - | - | - |
| 1778037082 | 3.33° C | 85% | 1008.1 hPa | 0 mm | - | - | - |
| 1778036781 | 3.33° C | 86% | 1008.1 hPa | 0 mm | - | - | - |
| 1778035881 | 3.89° C | 83% | 1007.5 hPa | 0 mm | - | - | - |
| 1778035280 | 4.44° C | 80% | 1007.6 hPa | 0 mm | - | - | - |
| 1778034379 | 5° C | 74% | 1006.6 hPa | 0 mm | - | - | - |
| 1778034079 | 5° C | 73% | 1006.8 hPa | 0 mm | - | - | - |
| 1778033778 | 5.56° C | 70% | 1006.8 hPa | 0 mm | - | - | - |
| 1778033178 | 5° C | 69% | 1006.7 hPa | 0 mm | - | - | - |
| 1778032878 | 5° C | 70% | 1006.7 hPa | 0 mm | - | - | - |
| 1778032277 | 5° C | 71% | 1006.5 hPa | 0 mm | - | - | - |
| 1778031677 | 5.56° C | 70% | 1006.5 hPa | 0 mm | - | - | - |
| 1778031076 | 6.11° C | 67% | 1006.5 hPa | 0 mm | - | - | - |
| 1778030776 | 6.11° C | 66% | 1006.4 hPa | 0 mm | - | - | - |
| 1778030476 | 6.67° C | 64% | 1006.3 hPa | 0 mm | - | - | - |
| 1778029875 | 6.67° C | 62% | 1006.1 hPa | 0 mm | - | - | - |
| 1778028974 | 7.22° C | 60% | 1005.5 hPa | 0 mm | - | - | - |
| 1778028674 | 7.78° C | 58% | 1005.6 hPa | 0 mm | - | - | - |
| 1778027773 | 8.89° C | 50% | 1005.2 hPa | 0 mm | - | - | - |
* Rain latest hour (hover to see other rain measurements)
** Current wind speed in m/s (hover to see current wind gust speed)